Time;durP1;ratioP1;P1;durP2;ratioP2;P2;SDS_P1;SDS_P2;PMS_P1;PMS_P2;Temp;Humidity;BMP_temperature;BMP_pressure;BME280_temperature;BME280_humidity;BME280_pressure;Samples;Min_cycle;Max_cycle;Signal;HPM_P1;HPM_P2
2022/03/06 00:00:25;;;;;;;37.60;21.30;;;;;;;3.21;57.81;102051.16;3577953;40;20340;-63
2022/03/06 00:02:50;;;;;;;36.35;20.45;;;;;;;3.16;59.16;102052.97;3578342;40;20053;-63
2022/03/06 00:05:16;;;;;;;35.88;20.63;;;;;;;3.16;57.83;102058.28;3580417;40;20060;-62
2022/03/06 00:07:42;;;;;;;37.50;20.80;;;;;;;3.12;58.55;102053.91;3578890;40;20439;-63
2022/03/06 00:10:08;;;;;;;35.78;20.48;;;;;;;3.10;58.68;102054.81;3582184;40;20056;-62
2022/03/06 00:12:34;;;;;;;36.97;20.85;;;;;;;3.04;59.15;102058.41;3580215;40;20402;-62
2022/03/06 00:14:59;;;;;;;39.33;20.83;;;;;;;3.01;58.75;102062.03;3579152;40;20068;-62
2022/03/06 00:17:26;;;;;;;35.33;20.70;;;;;;;2.88;59.18;102040.91;3578444;40;20424;-62
2022/03/06 00:19:51;;;;;;;39.58;19.77;;;;;;;2.95;58.70;102056.78;3579004;40;20055;-62
2022/03/06 00:22:17;;;;;;;35.20;20.77;;;;;;;2.87;58.62;102048.00;3577478;40;20072;-63
2022/03/06 00:24:42;;;;;;;35.03;19.90;;;;;;;2.78;58.60;102042.75;3579458;40;20111;-63
2022/03/06 00:27:08;;;;;;;39.15;21.42;;;;;;;2.89;58.32;102058.59;3578558;40;20252;-63
2022/03/06 00:29:34;;;;;;;39.50;22.02;;;;;;;2.69;59.48;102033.13;3578796;40;20126;-62
2022/03/06 00:31:59;;;;;;;37.33;20.27;;;;;;;2.84;59.77;102065.72;3578962;40;20051;-63
2022/03/06 00:34:25;;;;;;;37.13;21.05;;;;;;;2.79;59.01;102063.09;3577574;40;20056;-62
2022/03/06 00:36:51;;;;;;;36.55;19.67;;;;;;;2.74;59.39;102065.81;3581060;40;20052;-62
2022/03/06 00:39:16;;;;;;;35.90;20.75;;;;;;;2.65;60.13;102059.72;3580418;40;20144;-62
2022/03/06 00:41:42;;;;;;;37.95;19.65;;;;;;;2.72;60.23;102067.59;3581878;40;20319;-63
2022/03/06 00:44:07;;;;;;;36.10;20.50;;;;;;;2.70;60.15;102073.84;3581892;40;20067;-62
2022/03/06 00:46:33;;;;;;;38.45;20.45;;;;;;;2.66;59.01;102075.63;3578419;40;20318;-62
2022/03/06 00:48:59;;;;;;;37.05;19.75;;;;;;;2.60;59.69;102082.75;3580373;40;20059;-62
2022/03/06 00:51:24;;;;;;;41.00;21.55;;;;;;;2.60;59.52;102085.41;3579693;40;20068;-62
2022/03/06 00:53:50;;;;;;;40.00;20.92;;;;;;;2.55;59.39;102085.47;3579894;40;20045;-63
2022/03/06 00:56:16;;;;;;;37.67;20.17;;;;;;;2.52;60.65;102098.75;3582619;40;20052;-62
2022/03/06 00:58:41;;;;;;;35.78;20.45;;;;;;;2.44;60.21;102080.25;3582504;40;20087;-61
2022/03/06 01:01:07;;;;;;;34.30;19.60;;;;;;;2.45;60.46;102083.78;3578056;40;20055;-63
2022/03/06 01:03:33;;;;;;;36.50;20.40;;;;;;;2.48;60.32;102091.72;3578661;40;20048;-62
2022/03/06 01:05:59;;;;;;;37.60;21.08;;;;;;;2.45;60.54;102097.94;3578617;40;20052;-63
2022/03/06 01:08:25;;;;;;;40.58;21.05;;;;;;;2.29;60.49;102067.09;3577629;40;20071;-62
2022/03/06 01:10:52;;;;;;;37.75;20.23;;;;;;;1.61;59.72;101964.16;3577785;40;20063;-62
2022/03/06 01:13:20;;;;;;;34.72;19.98;;;;;;;2.41;59.71;102097.94;3577810;40;20870;-62
2022/03/06 01:15:46;;;;;;;39.30;20.45;;;;;;;2.28;59.92;102070.63;3583248;40;20091;-63
2022/03/06 01:18:12;;;;;;;36.13;19.55;;;;;;;2.39;60.60;102090.00;3583119;40;20059;-62
2022/03/06 01:20:39;;;;;;;36.75;19.90;;;;;;;2.37;59.82;102091.78;3580871;40;20403;-63
2022/03/06 01:23:07;;;;;;;35.92;19.52;;;;;;;2.35;59.36;102098.00;3578442;40;20141;-62
2022/03/06 01:25:33;;;;;;;40.97;21.17;;;;;;;2.31;59.59;102099.78;3578736;40;20099;-63
2022/03/06 01:28:00;;;;;;;36.60;20.15;;;;;;;2.31;60.42;102097.13;3576879;40;20387;-62
2022/03/06 01:30:26;;;;;;;38.30;20.60;;;;;;;2.26;59.81;102106.91;3578981;40;20392;-62
2022/03/06 01:32:53;;;;;;;36.22;20.38;;;;;;;2.26;60.78;102093.66;3582293;40;20068;-62
2022/03/06 01:35:20;;;;;;;37.95;20.45;;;;;;;2.28;60.05;102108.69;3575894;40;20064;-62
2022/03/06 01:37:47;;;;;;;33.45;19.25;;;;;;;2.23;60.08;102113.13;3577465;40;20143;-62
2022/03/06 01:40:18;;;;;;;36.92;20.45;;;;;;;2.22;60.66;102103.41;3577387;40;20464;-62
2022/03/06 01:42:46;;;;;;;36.00;19.73;;;;;;;2.18;60.71;102106.94;3577471;40;20171;-62
2022/03/06 01:45:13;;;;;;;35.13;20.17;;;;;;;2.22;60.62;102111.38;3576903;40;20048;-62
2022/03/06 01:47:46;;;;;;;36.10;20.40;;;;;;;2.19;60.13;102110.47;3577906;40;20056;-61
2022/03/06 01:50:24;;;;;;;36.20;19.48;;;;;;;2.14;61.05;102120.25;3578669;40;20137;-62
2022/03/06 01:52:53;;;;;;;36.20;20.20;;;;;;;2.09;61.27;102114.97;3579824;40;20179;-62
2022/03/06 01:55:24;;;;;;;34.30;19.95;;;;;;;2.04;61.55;102120.31;3580114;40;20065;-62
2022/03/06 01:57:52;;;;;;;38.03;20.02;;;;;;;1.81;61.26;102082.44;3576267;40;20049;-62
2022/03/06 02:00:22;;;;;;;36.08;20.83;;;;;;;1.72;61.81;102074.53;3576136;40;20059;-61
2022/03/06 02:02:49;;;;;;;39.13;21.30;;;;;;;2.00;60.75;102123.88;3576115;40;20346;-62
2022/03/06 02:05:14;;;;;;;37.83;21.27;;;;;;;1.81;60.62;102090.41;3575179;40;20055;-62
2022/03/06 02:07:41;;;;;;;37.45;19.40;;;;;;;1.86;62.09;102105.38;3576153;40;20060;-61
2022/03/06 02:10:09;;;;;;;37.38;19.60;;;;;;;1.94;61.84;102113.31;3578273;40;20427;-61
2022/03/06 02:12:35;;;;;;;36.70;20.60;;;;;;;1.91;61.85;102115.97;3580310;40;20121;-62
2022/03/06 02:15:06;;;;;;;39.58;20.48;;;;;;;1.93;62.00;102124.78;3580169;40;20068;-62
2022/03/06 02:17:32;;;;;;;37.63;20.15;;;;;;;1.91;62.06;102123.91;3577318;40;20060;-62
2022/03/06 02:20:03;;;;;;;39.15;20.52;;;;;;;1.89;60.82;102117.72;3577058;40;20320;-62
2022/03/06 02:22:35;;;;;;;34.45;19.88;;;;;;;1.87;61.21;102116.84;3577538;40;20063;-64
2022/03/06 02:25:10;;;;;;;36.97;20.73;;;;;;;1.81;61.30;102111.59;3576727;40;20052;-62
2022/03/06 02:27:36;;;;;;;36.75;19.60;;;;;;;1.71;62.41;102107.22;3575940;40;20067;-62
2022/03/06 02:30:14;;;;;;;36.63;20.13;;;;;;;1.74;61.94;102125.75;3577064;40;20052;-62
2022/03/06 02:32:40;;;;;;;35.97;19.40;;;;;;;1.73;61.66;102131.97;3577213;40;20057;-62
2022/03/06 02:35:09;;;;;;;37.97;20.50;;;;;;;1.72;62.65;102143.47;3578702;40;20056;-62
2022/03/06 02:37:35;;;;;;;37.65;20.42;;;;;;;1.73;61.43;102138.13;3576120;40;20056;-62
2022/03/06 02:40:04;;;;;;;38.38;20.30;;;;;;;1.60;61.84;102124.06;3576318;40;20410;-62
2022/03/06 02:42:38;;;;;;;37.88;20.08;;;;;;;1.68;62.97;102142.59;3577606;40;20056;-62
2022/03/06 02:45:15;;;;;;;37.08;19.70;;;;;;;1.67;61.61;102139.94;3578616;40;20049;-62
2022/03/06 02:47:43;;;;;;;35.65;20.08;;;;;;;1.65;62.47;102142.59;3577996;40;20060;-62
2022/03/06 02:50:15;;;;;;;36.05;19.45;;;;;;;1.63;62.95;102142.59;3582568;40;20068;-62
2022/03/06 02:52:41;;;;;;;35.58;19.95;;;;;;;1.63;62.85;102145.25;3584801;40;20051;-61
2022/03/06 02:55:08;;;;;;;38.40;20.50;;;;;;;1.60;62.44;102139.06;3584135;40;20052;-62
2022/03/06 02:57:34;;;;;;;38.17;21.08;;;;;;;1.51;63.21;102126.72;3582683;40;20078;-62
2022/03/06 03:00:00;;;;;;;38.60;20.30;;;;;;;1.57;62.96;102139.97;3580894;40;20056;-62
2022/03/06 03:02:26;;;;;;;36.40;20.05;;;;;;;1.55;62.11;102141.72;3581790;40;20076;-62
2022/03/06 03:04:52;;;;;;;37.78;20.48;;;;;;;1.26;62.51;102107.38;3622851;22;20052;-62
2022/03/06 03:07:17;;;;;;;37.05;20.27;;;;;;;1.40;63.76;102125.91;3587887;40;20074;-63
2022/03/06 03:09:43;;;;;;;34.20;19.42;;;;;;;1.41;63.07;102135.59;3587227;40;20086;-62
2022/03/06 03:12:09;;;;;;;31.83;17.65;;;;;;;1.35;64.20;102127.66;3586926;40;20194;-62
2022/03/06 03:14:36;;;;;;;33.85;19.95;;;;;;;1.45;63.13;102149.72;3587538;40;20052;-62
2022/03/06 03:17:04;;;;;;;34.33;19.23;;;;;;;1.45;64.07;102153.25;3576661;40;20048;-62
2022/03/06 03:19:30;;;;;;;35.78;17.77;;;;;;;1.38;64.03;102143.56;3587984;40;20056;-62
2022/03/06 03:21:56;;;;;;;36.88;19.60;;;;;;;1.42;64.31;102153.25;3586304;40;20076;-62
2022/03/06 03:24:24;;;;;;;36.05;18.90;;;;;;;1.40;64.06;102147.09;3587594;40;20075;-62
2022/03/06 03:26:50;;;;;;;33.08;18.35;;;;;;;1.36;64.78;102142.66;3588174;40;20095;-62
2022/03/06 03:29:16;;;;;;;39.35;20.00;;;;;;;1.31;64.85;102141.81;3587307;40;20406;-63
2022/03/06 03:31:42;;;;;;;29.80;17.70;;;;;;;1.33;64.29;102145.31;3591169;40;20059;-62
2022/03/06 03:34:08;;;;;;;34.20;19.05;;;;;;;1.17;64.65;102123.28;3590984;40;20172;-64
2022/03/06 03:36:33;;;;;;;37.17;18.95;;;;;;;1.21;64.60;102134.78;3589259;40;20126;-62
2022/03/06 03:38:59;;;;;;;36.75;18.98;;;;;;;1.19;65.39;102131.25;3588430;40;20263;-62
2022/03/06 03:41:24;;;;;;;32.05;18.08;;;;;;;1.20;65.00;102138.28;3586725;40;20056;-62
2022/03/06 03:43:52;;;;;;;31.30;17.70;;;;;;;1.22;65.32;102142.72;3584747;40;20055;-62
2022/03/06 03:46:18;;;;;;;32.83;18.38;;;;;;;1.19;65.55;102128.59;3589821;40;20316;-65
2022/03/06 03:48:44;;;;;;;34.63;19.27;;;;;;;1.24;64.08;102145.34;3587407;40;20052;-62
2022/03/06 03:51:11;;;;;;;32.45;18.50;;;;;;;1.22;64.89;102152.44;3587991;39;20092;-62
2022/03/06 03:53:38;;;;;;;34.13;18.95;;;;;;;1.14;65.76;102136.53;3587783;40;20064;-63
2022/03/06 03:56:05;;;;;;;33.92;19.42;;;;;;;1.11;64.74;102133.88;3588218;40;20079;-62
2022/03/06 03:58:31;;;;;;;34.05;19.17;;;;;;;1.17;65.12;102149.78;3594525;40;20052;-62
2022/03/06 04:00:57;;;;;;;33.40;18.10;;;;;;;1.13;65.87;102154.19;3597077;40;20330;-63
2022/03/06 04:03:24;;;;;;;36.53;19.35;;;;;;;1.15;65.34;102159.50;3591805;40;20110;-62
2022/03/06 04:05:51;;;;;;;37.35;19.08;;;;;;;0.95;66.06;102126.84;3593477;40;20047;-62
2022/03/06 04:08:17;;;;;;;31.48;18.70;;;;;;;1.10;65.84;102158.63;3588989;40;20051;-62
2022/03/06 04:10:43;;;;;;;33.08;17.95;;;;;;;1.00;65.47;102135.69;3588881;40;20342;-62
2022/03/06 04:13:09;;;;;;;34.00;19.52;;;;;;;0.97;65.92;102147.16;3590155;40;20062;-62
2022/03/06 04:15:35;;;;;;;33.60;18.45;;;;;;;1.00;65.96;102164.81;3590095;40;20052;-62
2022/03/06 04:18:02;;;;;;;34.85;19.70;;;;;;;0.55;66.70;102103.09;3588512;40;20122;-62
2022/03/06 04:20:28;;;;;;;37.67;20.13;;;;;;;0.82;66.80;102160.41;3590828;40;20387;-63
2022/03/06 04:22:55;;;;;;;35.92;19.40;;;;;;;0.67;66.02;102146.28;3589818;40;20377;-64
2022/03/06 04:25:21;;;;;;;34.85;18.67;;;;;;;0.79;67.18;102171.84;3592433;40;20063;-63
2022/03/06 04:27:47;;;;;;;33.40;18.75;;;;;;;0.82;66.14;102181.56;3590451;40;20167;-64
2022/03/06 04:30:12;;;;;;;33.10;18.60;;;;;;;0.70;66.78;102169.25;3589401;40;20052;-64
2022/03/06 04:32:38;;;;;;;34.20;19.92;;;;;;;0.78;66.47;102183.34;3589449;40;20129;-64
2022/03/06 04:35:06;;;;;;;32.45;19.40;;;;;;;0.78;67.09;102187.75;3592234;40;20063;-64
2022/03/06 04:37:32;;;;;;;33.58;18.60;;;;;;;0.75;66.78;102185.97;3591455;40;20055;-64
2022/03/06 04:39:57;;;;;;;33.08;19.15;;;;;;;0.76;66.51;102187.78;3588467;40;20056;-64
2022/03/06 04:42:23;;;;;;;36.70;19.67;;;;;;;0.64;66.43;102178.03;3592652;40;20068;-64
2022/03/06 04:44:49;;;;;;;33.03;18.13;;;;;;;0.69;66.03;102194.78;3593526;40;20126;-64
2022/03/06 04:47:15;;;;;;;33.20;19.13;;;;;;;0.65;66.63;102190.38;3587777;40;20067;-64
2022/03/06 04:49:40;;;;;;;33.72;18.85;;;;;;;0.67;67.80;102191.28;3590630;40;20078;-64
2022/03/06 04:52:06;;;;;;;31.08;18.02;;;;;;;0.41;66.84;102151.56;3592817;39;20055;-64
2022/03/06 04:54:32;;;;;;;33.28;18.75;;;;;;;0.43;66.62;102164.78;3593638;40;20121;-64
2022/03/06 04:57:00;;;;;;;32.53;18.67;;;;;;;0.65;67.49;102203.63;3587956;40;20047;-64
2022/03/06 04:59:27;;;;;;;32.47;18.73;;;;;;;0.63;66.29;102210.66;3591416;40;20048;-63
2022/03/06 05:01:53;;;;;;;35.47;19.05;;;;;;;0.58;67.19;102209.78;3592893;40;20116;-64
2022/03/06 05:04:19;;;;;;;32.50;18.85;;;;;;;0.35;66.51;102177.09;3591862;40;20056;-64
2022/03/06 05:06:45;;;;;;;32.67;19.05;;;;;;;0.55;67.65;102223.00;3589826;40;20052;-64
2022/03/06 05:09:10;;;;;;;32.65;18.45;;;;;;;0.48;66.62;102205.38;3592588;40;20063;-64
2022/03/06 05:11:36;;;;;;;37.88;19.17;;;;;;;0.56;67.77;102218.59;3591586;40;20265;-64
2022/03/06 05:14:02;;;;;;;31.58;19.20;;;;;;;0.51;67.51;102213.31;3586442;40;20396;-63
2022/03/06 05:16:28;;;;;;;32.65;18.75;;;;;;;0.57;66.95;102228.28;3589125;40;20050;-64
2022/03/06 05:18:53;;;;;;;29.42;17.88;;;;;;;0.52;67.19;102220.34;3590076;40;20063;-62
2022/03/06 05:21:19;;;;;;;34.72;19.33;;;;;;;0.51;67.89;102229.19;3577554;40;20318;-62
2022/03/06 05:23:45;;;;;;;30.40;17.83;;;;;;;0.45;67.80;102215.94;3592498;40;20294;-63
2022/03/06 05:26:10;;;;;;;31.13;18.65;;;;;;;0.53;67.22;102218.59;3591705;40;20060;-62
2022/03/06 05:28:36;;;;;;;31.52;17.80;;;;;;;0.52;67.43;102236.22;3591772;40;20067;-63
2022/03/06 05:31:01;;;;;;;31.00;17.92;;;;;;;0.03;66.78;102154.09;3592494;40;20059;-63
2022/03/06 05:33:27;;;;;;;31.70;18.40;;;;;;;0.46;67.47;102238.84;3595213;40;20072;-63
2022/03/06 05:35:53;;;;;;;27.58;17.60;;;;;;;0.42;66.84;102237.97;3596925;40;20052;-62
2022/03/06 05:38:19;;;;;;;28.83;17.27;;;;;;;0.22;66.95;102205.28;3596734;40;20052;-63
2022/03/06 05:40:45;;;;;;;32.67;18.02;;;;;;;0.42;66.86;102247.69;3596936;40;20060;-63
2022/03/06 05:43:11;;;;;;;31.80;17.63;;;;;;;0.36;66.88;102237.06;3595440;40;20063;-63
2022/03/06 05:45:37;;;;;;;31.08;18.75;;;;;;;0.31;68.02;102233.53;3598224;40;20058;-62
2022/03/06 05:48:02;;;;;;;27.27;17.63;;;;;;;0.34;67.88;102236.16;3590026;40;20044;-63
2022/03/06 05:50:28;;;;;;;29.55;18.77;;;;;;;0.26;66.36;102224.72;3590303;40;20143;-63
2022/03/06 05:52:53;;;;;;;30.05;18.35;;;;;;;0.38;67.40;102256.47;3592696;40;20051;-63
2022/03/06 05:55:19;;;;;;;31.60;19.42;;;;;;;0.29;67.69;102243.22;3591462;40;20068;-64
2022/03/06 05:57:45;;;;;;;31.52;19.48;;;;;;;0.31;67.87;102254.69;3587251;40;20064;-62
2022/03/06 06:00:12;;;;;;;31.02;18.08;;;;;;;0.29;67.74;102252.03;3586012;40;20452;-63
2022/03/06 06:02:39;;;;;;;30.55;17.60;;;;;;;0.26;67.48;102246.75;3589831;40;20056;-62
2022/03/06 06:05:06;;;;;;;30.83;19.08;;;;;;;0.30;66.95;102263.50;3590885;40;20078;-62
2022/03/06 06:07:33;;;;;;;30.35;18.23;;;;;;;0.27;66.91;102258.19;3591775;40;20072;-62
2022/03/06 06:09:58;;;;;;;29.13;18.38;;;;;;;0.20;67.76;102254.66;3588529;40;20054;-63
2022/03/06 06:12:24;;;;;;;29.48;18.52;;;;;;;0.05;67.82;102234.31;3579036;40;20074;-63
2022/03/06 06:14:50;;;;;;;30.58;18.10;;;;;;;0.21;67.34;102275.78;3589174;40;20066;-63
2022/03/06 06:17:16;;;;;;;28.02;18.75;;;;;;;0.21;67.28;102275.78;3592229;39;20044;-63
2022/03/06 06:19:42;;;;;;;31.50;18.48;;;;;;;0.25;68.26;102281.97;3592375;40;20414;-62
2022/03/06 06:22:07;;;;;;;30.08;18.58;;;;;;;0.28;68.26;102286.41;3595364;40;20056;-64
2022/03/06 06:24:33;;;;;;;31.75;19.17;;;;;;;0.32;67.55;102293.47;3588228;40;20044;-65
2022/03/06 06:26:59;;;;;;;28.75;18.95;;;;;;;0.23;66.98;102276.69;3588532;40;20054;-63
2022/03/06 06:29:25;;;;;;;29.35;18.65;;;;;;;0.29;67.63;102285.53;3593770;40;20160;-63
2022/03/06 06:31:52;;;;;;;29.92;17.98;;;;;;;0.25;67.27;102286.38;3593989;40;20382;-63
2022/03/06 06:34:19;;;;;;;29.83;17.52;;;;;;;0.32;68.02;102301.38;3581624;40;20068;-63
2022/03/06 06:36:45;;;;;;;28.48;18.05;;;;;;;0.35;66.92;102301.41;3595440;40;20364;-62
2022/03/06 06:39:11;;;;;;;30.80;18.55;;;;;;;0.40;67.57;102299.69;3592188;40;20052;-63
2022/03/06 06:41:39;;;;;;;27.15;17.83;;;;;;;0.35;66.54;102291.75;3591187;40;20055;-64
2022/03/06 06:44:05;;;;;;;28.80;18.60;;;;;;;0.39;66.83;102293.50;3593281;40;20078;-63
2022/03/06 06:46:32;;;;;;;31.02;18.38;;;;;;;0.44;67.20;102301.44;3592059;40;20048;-63
2022/03/06 06:48:58;;;;;;;28.30;17.75;;;;;;;0.44;67.45;102293.50;3593679;40;20086;-63
2022/03/06 06:51:23;;;;;;;28.20;18.48;;;;;;;0.61;65.89;102312.09;3592814;39;20395;-63
2022/03/06 06:53:49;;;;;;;29.02;18.63;;;;;;;0.71;66.07;102310.38;3593269;40;20131;-63
2022/03/06 06:56:14;;;;;;;29.75;18.58;;;;;;;0.81;65.24;102304.22;3592088;40;20068;-63
2022/03/06 06:58:40;;;;;;;31.10;19.07;;;;;;;0.89;65.03;102308.66;3590964;40;20409;-63
2022/03/06 07:01:06;;;;;;;27.55;17.48;;;;;;;1.07;65.01;102321.03;3591760;40;20243;-63
2022/03/06 07:03:32;;;;;;;27.25;17.58;;;;;;;1.04;64.02;102304.25;3588849;40;20562;-63
2022/03/06 07:05:58;;;;;;;30.45;18.02;;;;;;;1.01;64.32;102297.19;3593102;40;20124;-63
2022/03/06 07:08:24;;;;;;;29.05;17.92;;;;;;;1.28;63.89;102327.25;3590919;40;20047;-63
2022/03/06 07:10:50;;;;;;;29.40;18.15;;;;;;;1.26;63.91;102307.81;3590204;40;20314;-63
2022/03/06 07:13:16;;;;;;;26.90;17.85;;;;;;;1.45;64.13;102330.75;3589233;40;20056;-64
2022/03/06 07:15:42;;;;;;;25.30;17.25;;;;;;;1.49;63.95;102329.00;3589842;40;20058;-63
2022/03/06 07:18:07;;;;;;;28.73;17.95;;;;;;;1.50;62.96;102317.53;3589488;40;20047;-63
2022/03/06 07:20:33;;;;;;;27.73;17.38;;;;;;;1.55;63.96;102327.22;3588917;40;20055;-63
2022/03/06 07:22:59;;;;;;;26.17;17.55;;;;;;;1.57;63.59;102322.81;3590396;40;20394;-64
2022/03/06 07:25:24;;;;;;;28.23;17.90;;;;;;;1.69;63.30;102334.31;3591414;40;20402;-64
2022/03/06 07:27:50;;;;;;;26.70;18.27;;;;;;;1.72;63.08;102331.66;3590564;40;20096;-64
2022/03/06 07:30:16;;;;;;;25.55;17.40;;;;;;;1.76;63.39;102326.34;3589915;40;20117;-63
2022/03/06 07:32:45;;;;;;;26.83;17.45;;;;;;;1.85;61.94;102330.75;3589797;40;20067;-63
2022/03/06 07:35:11;;;;;;;25.25;17.40;;;;;;;2.02;62.78;102342.19;3590923;40;20051;-64
2022/03/06 07:37:38;;;;;;;23.77;16.52;;;;;;;2.14;62.26;102348.38;3589105;40;20409;-63
2022/03/06 07:40:05;;;;;;;25.27;17.52;;;;;;;1.86;61.25;102271.53;3589476;40;20145;-61
2022/03/06 07:42:31;;;;;;;25.92;16.40;;;;;;;2.49;60.13;102359.75;3589835;40;20157;-63
2022/03/06 07:44:57;;;;;;;24.70;16.88;;;;;;;2.79;60.12;102371.13;3590933;40;20052;-65
2022/03/06 07:47:23;;;;;;;24.00;16.75;;;;;;;2.92;59.39;102358.69;3587987;40;20129;-62
2022/03/06 07:49:49;;;;;;;24.80;16.67;;;;;;;3.11;58.47;102351.47;3588865;40;20048;-62
2022/03/06 07:52:14;;;;;;;24.38;16.45;;;;;;;3.36;59.06;102355.75;3590158;39;20089;-62
2022/03/06 07:54:40;;;;;;;22.05;15.80;;;;;;;3.64;57.48;102363.50;3580270;40;20060;-62
2022/03/06 07:57:06;;;;;;;24.13;16.60;;;;;;;3.88;56.63;102375.69;3580715;40;20055;-61
2022/03/06 07:59:31;;;;;;;22.88;15.68;;;;;;;3.97;56.57;102350.81;3590573;40;20066;-62
2022/03/06 08:01:57;;;;;;;23.20;15.93;;;;;;;4.18;55.98;102363.84;3591908;40;20059;-62
2022/03/06 08:04:23;;;;;;;22.55;15.65;;;;;;;4.37;54.06;102357.44;3591693;40;20271;-61
2022/03/06 08:06:49;;;;;;;20.42;15.57;;;;;;;4.55;54.47;102371.44;3594044;40;20047;-62
2022/03/06 08:09:15;;;;;;;21.02;15.95;;;;;;;4.77;54.25;102388.03;3594835;40;20052;-61
2022/03/06 08:11:42;;;;;;;20.25;14.73;;;;;;;4.43;53.40;102298.78;3595467;40;20051;-61
2022/03/06 08:14:07;;;;;;;21.95;16.17;;;;;;;5.01;53.21;102378.81;3594486;40;20097;-62
2022/03/06 08:16:33;;;;;;;19.95;15.02;;;;;;;5.10;52.77;102376.91;3595738;40;20079;-63
2022/03/06 08:18:59;;;;;;;20.88;14.70;;;;;;;5.28;52.43;102375.78;3591810;40;20322;-63
2022/03/06 08:21:24;;;;;;;21.27;14.30;;;;;;;5.57;51.57;102393.13;3588507;40;20064;-62
2022/03/06 08:23:51;;;;;;;23.20;15.35;;;;;;;5.53;51.40;102376.28;3590446;39;20371;-63
2022/03/06 08:26:17;;;;;;;21.67;14.50;;;;;;;5.58;50.59;102373.53;3590013;40;20056;-64
2022/03/06 08:28:43;;;;;;;24.08;14.63;;;;;;;5.65;50.70;102391.22;3589394;40;20046;-63
2022/03/06 08:31:09;;;;;;;20.58;14.85;;;;;;;5.66;50.52;102384.97;3589378;40;20275;-62
2022/03/06 08:33:35;;;;;;;20.65;15.05;;;;;;;5.79;50.53;102399.84;3590829;40;20060;-63
2022/03/06 08:36:01;;;;;;;19.98;14.70;;;;;;;5.88;50.90;102390.81;3592834;40;20067;-63
2022/03/06 08:38:26;;;;;;;19.73;13.73;;;;;;;5.92;50.22;102370.31;3591938;40;20048;-63
2022/03/06 08:40:52;;;;;;;19.85;14.38;;;;;;;6.34;50.15;102397.16;3594001;40;20043;-62
2022/03/06 08:43:18;;;;;;;19.83;14.45;;;;;;;6.40;49.39;102407.72;3595146;40;20381;-62
2022/03/06 08:45:44;;;;;;;18.42;14.18;;;;;;;6.53;48.61;102413.69;3591190;40;20142;-65
2022/03/06 08:48:09;;;;;;;20.88;14.15;;;;;;;6.54;48.44;102423.50;3594485;40;20052;-62
2022/03/06 08:50:35;;;;;;;18.50;13.85;;;;;;;6.60;48.65;102413.56;3592783;40;20071;-63
2022/03/06 08:53:01;;;;;;;22.27;14.55;;;;;;;6.67;48.34;102420.56;3596388;39;20129;-62
2022/03/06 08:55:27;;;;;;;17.00;13.25;;;;;;;4.80;48.64;102085.19;3590555;40;20083;-64
2022/03/06 08:57:52;;;;;;;17.60;13.65;;;;;;;6.88;48.27;102419.25;3592190;40;20048;-63
2022/03/06 09:00:18;;;;;;;19.13;13.40;;;;;;;7.04;48.16;102418.88;3588289;40;20070;-63
2022/03/06 09:02:43;;;;;;;19.05;14.23;;;;;;;7.22;47.38;102416.69;3594742;40;20059;-64
2022/03/06 09:05:09;;;;;;;18.83;13.10;;;;;;;7.36;47.13;102424.44;3626959;22;20329;-62
2022/03/06 09:07:35;;;;;;;17.48;13.52;;;;;;;7.42;45.94;102418.03;3589082;40;20159;-63
2022/03/06 09:10:01;;;;;;;18.73;13.43;;;;;;;7.43;46.12;102419.81;3590794;40;20101;-63
2022/03/06 09:12:26;;;;;;;18.85;14.30;;;;;;;7.46;46.80;102425.09;3581735;40;20059;-63
2022/03/06 09:14:55;;;;;;;17.17;13.00;;;;;;;7.55;46.79;102426.66;3583619;40;20064;-62
2022/03/06 09:17:21;;;;;;;18.48;14.18;;;;;;;7.48;45.91;102423.25;3583000;40;20409;-62
2022/03/06 09:19:47;;;;;;;19.35;14.18;;;;;;;7.48;46.38;102415.22;3581196;40;20060;-64
2022/03/06 09:22:13;;;;;;;19.35;14.35;;;;;;;7.54;47.69;102425.78;3571170;40;20050;-63
2022/03/06 09:24:39;;;;;;;20.23;14.32;;;;;;;7.68;46.73;102426.34;3581521;40;20048;-65
2022/03/06 09:27:04;;;;;;;19.70;13.88;;;;;;;7.74;46.10;102425.31;3583342;40;20122;-63
2022/03/06 09:29:30;;;;;;;19.05;13.85;;;;;;;7.85;46.45;102422.38;3582550;40;20104;-63
2022/03/06 09:31:56;;;;;;;17.77;13.52;;;;;;;7.92;45.47;102426.66;3582592;40;20060;-63
2022/03/06 09:34:21;;;;;;;19.67;13.85;;;;;;;7.85;45.68;102409.88;3582328;40;20434;-63
2022/03/06 09:36:48;;;;;;;18.48;13.60;;;;;;;7.87;45.45;102399.13;3582159;40;20064;-64
2022/03/06 09:39:14;;;;;;;16.67;12.98;;;;;;;8.13;45.51;102422.56;3579968;40;20047;-63
2022/03/06 09:41:42;;;;;;;20.42;14.32;;;;;;;8.25;45.14;102419.56;3569587;40;20041;-63
2022/03/06 09:44:11;;;;;;;17.65;13.32;;;;;;;8.31;45.27;102415.84;3570797;40;20114;-63
2022/03/06 09:46:39;;;;;;;18.35;14.32;;;;;;;8.26;44.56;102415.06;3582386;40;20080;-61
2022/03/06 09:49:07;;;;;;;19.13;13.65;;;;;;;8.29;44.14;102415.00;3581018;40;20075;-64
2022/03/06 09:51:43;;;;;;;18.90;13.48;;;;;;;8.44;44.69;102414.63;3580500;40;20048;-64
2022/03/06 09:54:11;;;;;;;18.58;13.52;;;;;;;8.55;44.93;102414.31;3584104;40;20056;-64
2022/03/06 09:56:37;;;;;;;18.50;14.15;;;;;;;8.65;43.88;102414.94;3584676;40;20048;-63
2022/03/06 09:59:03;;;;;;;17.58;13.80;;;;;;;8.68;44.10;102414.84;3583038;40;20306;-64
2022/03/06 10:01:29;;;;;;;19.38;13.55;;;;;;;8.78;43.30;102419.00;3583462;40;20068;-64
2022/03/06 10:03:54;;;;;;;15.95;12.90;;;;;;;8.77;44.00;102406.53;3582240;40;20060;-62
2022/03/06 10:06:20;;;;;;;17.83;13.77;;;;;;;8.24;44.35;102318.66;3584153;40;20064;-64
2022/03/06 10:08:45;;;;;;;17.88;13.88;;;;;;;8.83;43.80;102406.38;3583286;40;20149;-63
2022/03/06 10:11:13;;;;;;;19.45;13.85;;;;;;;8.89;44.05;102386.53;3583695;40;20051;-62
2022/03/06 10:13:43;;;;;;;17.08;13.60;;;;;;;9.13;44.27;102406.38;3584642;40;20053;-62
2022/03/06 10:16:20;;;;;;;17.30;13.25;;;;;;;9.03;43.24;102395.03;3572817;40;20435;-63
2022/03/06 10:18:55;;;;;;;16.98;12.82;;;;;;;9.17;43.68;102418.78;3583966;40;20268;-63
2022/03/06 10:21:33;;;;;;;17.05;13.18;;;;;;;9.22;43.68;102423.06;3581394;40;20048;-62
2022/03/06 10:24:08;;;;;;;17.52;13.07;;;;;;;9.26;42.52;102399.69;3584735;40;20060;-64
2022/03/06 10:26:37;;;;;;;17.25;13.73;;;;;;;9.28;43.66;102417.50;3584586;40;20051;-65
2022/03/06 10:29:11;;;;;;;17.17;12.70;;;;;;;9.33;42.98;102420.06;3584615;40;20074;-64
2022/03/06 10:31:54;;;;;;;16.73;12.32;;;;;;;9.41;43.08;102422.50;3584523;40;20078;-64
2022/03/06 10:34:37;;;;;;;17.53;13.30;;;;;;;9.54;43.31;102424.72;3583517;40;20044;-63
2022/03/06 10:37:05;;;;;;;16.58;12.05;;;;;;;9.67;42.76;102413.59;3581697;40;20308;-65
2022/03/06 10:39:46;;;;;;;15.75;12.45;;;;;;;9.57;42.17;102421.06;3583322;40;20381;-63
2022/03/06 10:42:22;;;;;;;17.83;13.52;;;;;;;9.52;43.08;102398.88;3583916;40;20048;-63
2022/03/06 10:44:48;;;;;;;15.60;12.30;;;;;;;9.85;41.67;102426.44;3583632;40;20063;-64
2022/03/06 10:47:13;;;;;;;17.58;12.27;;;;;;;9.71;40.62;102408.09;3583703;40;20060;-64
2022/03/06 10:49:40;;;;;;;15.05;11.85;;;;;;;9.73;41.44;102386.53;3571179;40;20138;-62
2022/03/06 10:52:15;;;;;;;14.60;11.82;;;;;;;10.05;40.85;102414.13;3579962;40;20048;-63
2022/03/06 10:54:56;;;;;;;14.93;11.85;;;;;;;10.09;41.07;102414.00;3584037;40;20056;-67
2022/03/06 10:57:24;;;;;;;13.90;11.23;;;;;;;10.36;40.73;102413.97;3582506;40;20064;-63
2022/03/06 10:59:51;;;;;;;13.23;11.52;;;;;;;10.41;38.53;102418.28;3584493;40;20054;-63
2022/03/06 11:02:17;;;;;;;14.32;11.43;;;;;;;10.59;38.39;102413.16;3582040;40;20108;-63
2022/03/06 11:04:48;;;;;;;14.50;11.48;;;;;;;10.62;38.87;102413.03;3582837;40;20052;-64
2022/03/06 11:07:14;;;;;;;14.13;11.30;;;;;;;10.72;37.60;102421.63;3573444;40;20052;-64
2022/03/06 11:09:40;;;;;;;14.50;11.00;;;;;;;10.76;37.51;102415.25;3582808;40;20103;-65
2022/03/06 11:12:07;;;;;;;14.20;11.07;;;;;;;10.81;37.07;102406.03;3584436;40;20052;-65
2022/03/06 11:14:33;;;;;;;13.10;9.70;;;;;;;10.66;36.61;102403.94;3583213;40;20060;-63